Time;durP1;ratioP1;P1;durP2;ratioP2;P2;SDS_P1;SDS_P2;PMS_P1;PMS_P2;Temp;Humidity;BMP_temperature;BMP_pressure;BME280_temperature;BME280_humidity;BME280_pressure;Samples;Min_cycle;Max_cycle;Signal;HPM_P1;HPM_P2
2022/07/30 00:01:38;;;;;;;2.50;1.55;;;;;;;;;;5053422;28;20087;-68
2022/07/30 00:04:04;;;;;;;3.13;2.33;;;;;;;;;;5053407;28;20128;-68
2022/07/30 00:06:31;;;;;;;3.10;2.60;;;;;;;;;;5053359;28;20080;-68
2022/07/30 00:08:58;;;;;;;3.53;2.60;;;;;;;;;;5053577;28;20068;-68
2022/07/30 00:11:24;;;;;;;2.57;2.37;;;;;;;;;;5053049;28;20072;-69
2022/07/30 00:13:53;;;;;;;2.50;2.25;;;;;;;;;;5053079;28;20049;-69
2022/07/30 00:16:20;;;;;;;2.30;2.10;;;;;;;;;;5052914;28;20394;-69
2022/07/30 00:18:47;;;;;;;2.63;2.17;;;;;;;;;;5051845;28;20067;-69
2022/07/30 00:21:13;;;;;;;2.33;2.08;;;;;;;;;;5052984;28;20492;-69
2022/07/30 00:24:00;;;;;;;3.08;2.75;;;;;;;;;;5052830;28;20055;-69
2022/07/30 00:26:27;;;;;;;4.57;2.75;;;;;;;;;;5052533;28;20107;-69
2022/07/30 00:28:54;;;;;;;3.20;2.53;;;;;;;;;;5052876;28;20088;-69
2022/07/30 00:31:20;;;;;;;3.33;2.53;;;;;;;;;;5052579;28;20545;-69
2022/07/30 00:33:47;;;;;;;2.53;2.33;;;;;;;;;;5052900;28;20080;-69
2022/07/30 00:36:13;;;;;;;3.30;2.88;;;;;;;;;;5051870;28;20045;-69
2022/07/30 00:38:40;;;;;;;2.80;2.55;;;;;;;;;;5052726;28;20091;-69
2022/07/30 00:41:06;;;;;;;3.20;2.90;;;;;;;;;;5052432;28;20088;-69
2022/07/30 00:43:33;;;;;;;3.20;2.55;;;;;;;;;;5052324;28;20084;-69
2022/07/30 00:45:59;;;;;;;5.32;2.83;;;;;;;;;;5052576;28;20080;-69
2022/07/30 00:48:26;;;;;;;2.47;2.28;;;;;;;;;;5052161;28;20057;-69
2022/07/30 00:50:52;;;;;;;3.50;2.63;;;;;;;;;;5052201;28;20084;-69
2022/07/30 00:53:19;;;;;;;5.03;2.75;;;;;;;;;;5052122;28;20080;-69
2022/07/30 00:55:45;;;;;;;4.25;2.92;;;;;;;;;;5052395;28;20071;-69
2022/07/30 00:58:11;;;;;;;2.90;2.45;;;;;;;;;;5052348;28;20500;-69
2022/07/30 01:00:38;;;;;;;2.90;2.70;;;;;;;;;;5051959;28;20085;-69
2022/07/30 01:03:05;;;;;;;3.38;3.08;;;;;;;;;;5052032;28;20084;-69
2022/07/30 01:05:32;;;;;;;2.78;2.50;;;;;;;;;;5052186;28;20129;-69
2022/07/30 01:07:58;;;;;;;2.95;2.67;;;;;;;;;;5051856;28;20084;-69
2022/07/30 01:10:25;;;;;;;3.00;2.60;;;;;;;;;;5052432;28;20503;-69
2022/07/30 01:12:53;;;;;;;4.35;2.97;;;;;;;;;;5051850;28;20516;-69
2022/07/30 01:15:20;;;;;;;3.28;2.97;;;;;;;;;;5051885;28;20084;-69
2022/07/30 01:17:48;;;;;;;4.13;2.88;;;;;;;;;;5045461;28;20100;-69
2022/07/30 01:20:22;;;;;;;4.75;2.90;;;;;;;;;;5045394;28;20071;-69
2022/07/30 01:22:49;;;;;;;3.50;3.00;;;;;;;;;;5052105;28;20084;-69
2022/07/30 01:25:27;;;;;;;4.72;3.20;;;;;;;;;;5051996;28;20081;-69
2022/07/30 01:27:57;;;;;;;4.60;3.00;;;;;;;;;;5051747;28;20073;-69
2022/07/30 01:30:25;;;;;;;2.88;2.67;;;;;;;;;;5051945;28;20044;-69
2022/07/30 01:32:53;;;;;;;2.95;2.70;;;;;;;;;;5051543;28;20084;-69
2022/07/30 01:35:19;;;;;;;;;;;;;;;;;;5052276;28;20076;-69
2022/07/30 01:37:46;;;;;;;3.10;2.80;;;;;;;;;;5051783;28;19998;-69
2022/07/30 01:40:15;;;;;;;3.88;2.90;;;;;;;;;;5051842;28;20092;-69
2022/07/30 01:42:43;;;;;;;3.30;3.00;;;;;;;;;;5051418;28;20092;-69
2022/07/30 01:45:11;;;;;;;3.28;2.92;;;;;;;;;;5051486;28;20527;-69
2022/07/30 01:47:38;;;;;;;2.95;2.75;;;;;;;;;;5052549;28;20488;-69
2022/07/30 01:50:07;;;;;;;3.25;3.05;;;;;;;;;;5055874;28;20081;-69
2022/07/30 01:52:37;;;;;;;3.22;2.92;;;;;;;;;;5055660;28;20455;-69
2022/07/30 01:55:04;;;;;;;5.57;2.88;;;;;;;;;;5055707;28;20094;-69
2022/07/30 01:57:44;;;;;;;4.03;2.80;;;;;;;;;;5055502;28;20045;-69
2022/07/30 02:00:11;;;;;;;3.38;3.08;;;;;;;;;;5055287;28;20076;-69
2022/07/30 02:02:39;;;;;;;3.15;2.95;;;;;;;;;;5055363;28;20088;-69
2022/07/30 02:05:07;;;;;;;4.07;3.00;;;;;;;;;;5055539;28;20065;-69
2022/07/30 02:07:44;;;;;;;5.07;2.75;;;;;;;;;;5055278;28;20504;-69
2022/07/30 02:10:13;;;;;;;4.30;2.83;;;;;;;;;;5055328;28;20126;-69
2022/07/30 02:12:44;;;;;;;3.05;2.85;;;;;;;;;;5055476;28;20099;-69
2022/07/30 02:15:37;;;;;;;3.33;3.03;;;;;;;;;;5055209;28;20084;-69
2022/07/30 02:18:12;;;;;;;3.25;2.90;;;;;;;;;;5054742;28;20045;-69
2022/07/30 02:20:42;;;;;;;5.82;3.40;;;;;;;;;;5054948;28;20095;-69
2022/07/30 02:23:14;;;;;;;3.60;3.20;;;;;;;;;;5055348;28;20052;-69
2022/07/30 02:25:43;;;;;;;4.35;3.70;;;;;;;;;;5055174;28;20163;-69
2022/07/30 02:28:11;;;;;;;3.72;3.13;;;;;;;;;;5053785;28;20127;-69
2022/07/30 02:30:41;;;;;;;3.53;3.20;;;;;;;;;;5055115;28;20087;-69
2022/07/30 02:33:11;;;;;;;4.05;3.35;;;;;;;;;;5054845;28;20132;-68
2022/07/30 02:35:39;;;;;;;3.53;3.22;;;;;;;;;;5053543;28;20095;-69
2022/07/30 02:38:05;;;;;;;;;;;;;;;;;;5055081;28;20083;-69
2022/07/30 02:40:32;;;;;;;3.63;3.30;;;;;;;;;;5054962;28;19978;-68
2022/07/30 02:42:59;;;;;;;3.45;3.15;;;;;;;;;;5054554;28;20088;-68
2022/07/30 02:45:26;;;;;;;4.20;3.17;;;;;;;;;;5054629;28;20382;-69
2022/07/30 02:48:05;;;;;;;3.58;3.35;;;;;;;;;;5054250;28;20048;-69
2022/07/30 02:50:32;;;;;;;4.28;3.20;;;;;;;;;;5054478;28;20041;-69
2022/07/30 02:53:00;;;;;;;3.38;3.10;;;;;;;;;;5048088;28;20083;-69
2022/07/30 02:55:27;;;;;;;3.75;2.83;;;;;;;;;;5054653;28;20052;-69
2022/07/30 02:57:55;;;;;;;3.20;2.90;;;;;;;;;;5054340;28;20048;-69
2022/07/30 03:00:21;;;;;;;;;;;;;;;;;;5053716;28;20083;-69
2022/07/30 03:02:48;;;;;;;3.10;2.63;;;;;;;;;;5054541;28;20392;-69
2022/07/30 03:05:14;;;;;;;2.95;2.75;;;;;;;;;;5054220;28;20136;-69
2022/07/30 03:07:41;;;;;;;3.20;3.00;;;;;;;;;;5054037;28;20088;-69
2022/07/30 03:10:08;;;;;;;3.45;3.15;;;;;;;;;;5054163;28;20456;-69
2022/07/30 03:12:36;;;;;;;3.17;2.90;;;;;;;;;;5054128;28;20080;-69
2022/07/30 03:15:02;;;;;;;4.15;3.60;;;;;;;;;;5054133;28;20084;-69
2022/07/30 03:17:31;;;;;;;2.97;2.77;;;;;;;;;;5053978;28;20563;-69
2022/07/30 03:19:59;;;;;;;3.00;2.67;;;;;;;;;;5054186;28;20095;-69
2022/07/30 03:22:26;;;;;;;3.00;2.70;;;;;;;;;;5054153;28;20103;-69
2022/07/30 03:24:58;;;;;;;3.15;2.85;;;;;;;;;;5054167;28;20096;-69
2022/07/30 03:27:25;;;;;;;4.97;2.87;;;;;;;;;;5054041;28;20060;-69
2022/07/30 03:29:52;;;;;;;3.45;2.92;;;;;;;;;;5053705;28;20505;-69
2022/07/30 03:32:20;;;;;;;3.22;2.92;;;;;;;;;;5053966;28;20075;-69
2022/07/30 03:34:53;;;;;;;3.45;2.80;;;;;;;;;;5053923;28;20048;-69
2022/07/30 03:37:20;;;;;;;3.10;2.80;;;;;;;;;;5053549;28;20078;-69
2022/07/30 03:39:47;;;;;;;3.20;2.90;;;;;;;;;;5053676;28;20409;-69
2022/07/30 03:42:14;;;;;;;3.00;2.80;;;;;;;;;;5053843;28;20048;-69
2022/07/30 03:44:41;;;;;;;3.25;2.95;;;;;;;;;;5053792;28;20084;-69
2022/07/30 03:47:08;;;;;;;3.45;3.17;;;;;;;;;;5053248;28;20485;-69
2022/07/30 03:49:34;;;;;;;3.13;2.83;;;;;;;;;;5053418;28;20128;-69
2022/07/30 03:52:01;;;;;;;3.40;3.10;;;;;;;;;;5053309;28;20041;-69
2022/07/30 03:54:29;;;;;;;3.08;2.88;;;;;;;;;;5053488;28;20095;-69
2022/07/30 03:56:55;;;;;;;3.75;3.00;;;;;;;;;;5053238;28;20508;-69
2022/07/30 03:59:22;;;;;;;4.53;2.92;;;;;;;;;;5053348;28;20084;-69
2022/07/30 04:01:48;;;;;;;2.85;2.65;;;;;;;;;;5053355;28;20083;-69
2022/07/30 04:04:15;;;;;;;3.13;2.83;;;;;;;;;;5053158;28;20059;-69
2022/07/30 04:06:42;;;;;;;3.53;3.03;;;;;;;;;;5051949;28;20099;-69
2022/07/30 04:09:09;;;;;;;4.00;3.70;;;;;;;;;;5053233;28;20128;-69
2022/07/30 04:11:36;;;;;;;4.45;3.45;;;;;;;;;;5052939;28;20091;-69
2022/07/30 04:14:07;;;;;;;3.83;3.53;;;;;;;;;;5053044;28;20485;-69
2022/07/30 04:16:33;;;;;;;4.20;3.90;;;;;;;;;;5052901;28;20080;-69
2022/07/30 04:19:09;;;;;;;3.65;3.35;;;;;;;;;;5053359;28;20107;-69
2022/07/30 04:21:36;;;;;;;4.28;3.83;;;;;;;;;;5053046;28;20049;-70
2022/07/30 04:24:03;;;;;;;4.35;4.05;;;;;;;;;;5053105;28;20103;-70
2022/07/30 04:26:32;;;;;;;4.18;3.80;;;;;;;;;;5052600;28;20094;-70
2022/07/30 04:28:59;;;;;;;4.13;3.78;;;;;;;;;;5053175;28;20390;-70
2022/07/30 04:31:26;;;;;;;3.92;3.47;;;;;;;;;;5052876;28;20079;-70
2022/07/30 04:33:53;;;;;;;3.83;3.50;;;;;;;;;;5052664;28;20045;-70
2022/07/30 04:36:20;;;;;;;3.60;3.33;;;;;;;;;;5052655;28;20127;-70
2022/07/30 04:38:46;;;;;;;5.07;3.60;;;;;;;;;;5052332;28;20080;-70
2022/07/30 04:41:12;;;;;;;5.57;4.30;;;;;;;;;;5052972;28;20370;-70
2022/07/30 04:43:39;;;;;;;5.35;4.78;;;;;;;;;;5052524;28;20044;-70
2022/07/30 04:46:05;;;;;;;5.80;5.20;;;;;;;;;;5052649;28;20080;-70
2022/07/30 04:48:32;;;;;;;6.25;5.00;;;;;;;;;;5052036;28;20432;-70
2022/07/30 04:51:01;;;;;;;7.68;4.95;;;;;;;;;;5052197;28;20084;-70
2022/07/30 04:53:28;;;;;;;5.53;4.88;;;;;;;;;;5052393;28;20126;-70
2022/07/30 04:55:56;;;;;;;5.15;4.65;;;;;;;;;;5052447;28;20076;-70
2022/07/30 04:58:24;;;;;;;5.57;4.93;;;;;;;;;;5052374;28;20164;-70
2022/07/30 05:00:52;;;;;;;6.45;5.85;;;;;;;;;;5051087;28;20484;-70
2022/07/30 05:03:20;;;;;;;7.20;6.05;;;;;;;;;;5052068;28;20126;-69
2022/07/30 05:05:46;;;;;;;6.07;5.47;;;;;;;;;;5050935;28;20152;-70
2022/07/30 05:08:13;;;;;;;6.20;4.23;;;;;;;;;;5051925;28;20524;-70
2022/07/30 05:10:40;;;;;;;4.25;3.83;;;;;;;;;;5052137;28;20045;-70
2022/07/30 05:13:11;;;;;;;3.57;3.30;;;;;;;;;;5052183;28;20096;-70
2022/07/30 05:15:38;;;;;;;3.50;3.20;;;;;;;;;;5052177;28;20479;-70
2022/07/30 05:18:05;;;;;;;3.92;3.63;;;;;;;;;;5051825;28;20519;-70
2022/07/30 05:20:31;;;;;;;5.10;3.70;;;;;;;;;;5052076;28;20087;-70
2022/07/30 05:22:58;;;;;;;4.13;3.80;;;;;;;;;;5051476;28;20049;-70
2022/07/30 05:25:25;;;;;;;4.35;3.55;;;;;;;;;;5051337;28;20187;-70
2022/07/30 05:27:51;;;;;;;4.65;4.25;;;;;;;;;;5051744;28;20080;-69
2022/07/30 05:30:18;;;;;;;6.10;4.13;;;;;;;;;;5035286;28;20440;-70
2022/07/30 05:32:51;;;;;;;4.28;3.60;;;;;;;;;;5037866;28;20060;-70
2022/07/30 05:35:18;;;;;;;4.32;3.92;;;;;;;;;;5051877;28;20055;-69
2022/07/30 05:37:44;;;;;;;3.97;3.58;;;;;;;;;;5031296;28;20072;-70
2022/07/30 05:40:11;;;;;;;4.68;4.22;;;;;;;;;;5031170;28;20497;-71
2022/07/30 05:42:37;;;;;;;5.93;3.80;;;;;;;;;;5031203;28;20485;-70
2022/07/30 05:45:05;;;;;;;5.80;4.72;;;;;;;;;;5031933;28;20041;-70
2022/07/30 05:47:31;;;;;;;4.75;4.10;;;;;;;;;;5030999;28;20135;-70
2022/07/30 05:49:58;;;;;;;3.80;3.50;;;;;;;;;;5030978;28;20081;-70
2022/07/30 05:52:30;;;;;;;4.07;3.70;;;;;;;;;;5030913;28;20046;-71
2022/07/30 05:54:56;;;;;;;4.80;3.65;;;;;;;;;;5031294;28;20053;-71
2022/07/30 05:57:23;;;;;;;4.20;3.80;;;;;;;;;;5030919;28;20073;-71
2022/07/30 05:59:49;;;;;;;6.47;4.20;;;;;;;;;;5031068;28;20049;-71
2022/07/30 06:02:16;;;;;;;3.90;3.28;;;;;;;;;;5045148;28;20084;-71
2022/07/30 06:04:42;;;;;;;4.00;3.70;;;;;;;;;;5051290;28;20076;-73
2022/07/30 06:07:11;;;;;;;5.50;4.20;;;;;;;;;;5051221;28;20048;-72
2022/07/30 06:09:38;;;;;;;5.00;4.10;;;;;;;;;;5051329;28;20140;-71
2022/07/30 06:12:04;;;;;;;4.63;3.90;;;;;;;;;;5051155;28;20441;-71
2022/07/30 06:14:31;;;;;;;4.20;3.80;;;;;;;;;;5051502;28;20083;-72
2022/07/30 06:16:57;;;;;;;4.43;4.03;;;;;;;;;;5050257;28;20067;-72
2022/07/30 06:19:25;;;;;;;4.22;3.88;;;;;;;;;;5051462;28;20053;-72
2022/07/30 06:21:51;;;;;;;5.05;4.20;;;;;;;;;;5051406;28;20087;-71
2022/07/30 06:24:31;;;;;;;5.82;4.25;;;;;;;;;;5051247;28;20056;-72
2022/07/30 06:26:58;;;;;;;6.85;4.72;;;;;;;;;;5051006;28;20091;-73
2022/07/30 06:29:25;;;;;;;7.22;4.78;;;;;;;;;;5051261;28;20144;-72
2022/07/30 06:31:51;;;;;;;5.72;4.97;;;;;;;;;;5051050;28;20081;-73
2022/07/30 06:34:17;;;;;;;5.75;5.25;;;;;;;;;;5051654;28;20079;-74
2022/07/30 06:36:44;;;;;;;5.75;5.25;;;;;;;;;;5055136;28;20084;-73
2022/07/30 06:39:10;;;;;;;6.95;6.35;;;;;;;;;;5054998;28;20102;-74
2022/07/30 06:41:37;;;;;;;7.65;6.60;;;;;;;;;;5055038;28;20473;-72
2022/07/30 06:44:03;;;;;;;7.28;6.50;;;;;;;;;;5054658;28;20566;-75
2022/07/30 06:46:30;;;;;;;6.90;6.28;;;;;;;;;;5054964;28;20408;-77
2022/07/30 06:48:56;;;;;;;6.85;6.25;;;;;;;;;;5054329;28;20063;-75
2022/07/30 06:51:23;;;;;;;8.13;6.93;;;;;;;;;;5043147;28;20045;-74
2022/07/30 06:53:49;;;;;;;7.18;6.57;;;;;;;;;;5050596;28;20453;-77
2022/07/30 06:56:16;;;;;;;7.78;7.03;;;;;;;;;;5054476;28;20127;-76
2022/07/30 06:58:42;;;;;;;7.78;7.03;;;;;;;;;;5036482;28;20119;-75
2022/07/30 07:01:09;;;;;;;7.10;6.40;;;;;;;;;;5035921;28;20083;-77
2022/07/30 07:03:36;;;;;;;;;;;;;;;;;;5036165;28;20365;-77
2022/07/30 07:06:04;;;;;;;8.10;6.93;;;;;;;;;;5041120;28;19928;-76
2022/07/30 07:08:31;;;;;;;6.88;6.25;;;;;;;;;;5033798;28;20081;-77
2022/07/30 07:10:57;;;;;;;7.32;6.63;;;;;;;;;;5033950;28;20084;-77
2022/07/30 07:13:24;;;;;;;7.20;6.50;;;;;;;;;;5034196;28;20077;-77
2022/07/30 07:15:50;;;;;;;6.43;5.85;;;;;;;;;;5038374;28;20077;-77
2022/07/30 07:18:17;;;;;;;7.32;6.72;;;;;;;;;;5053188;28;20583;-75
2022/07/30 07:20:45;;;;;;;6.32;5.70;;;;;;;;;;5053916;28;20526;-75
2022/07/30 07:23:11;;;;;;;6.20;5.70;;;;;;;;;;5052754;28;20099;-76
2022/07/30 07:25:39;;;;;;;6.55;5.82;;;;;;;;;;5053882;28;20056;-77
2022/07/30 07:28:06;;;;;;;5.78;5.28;;;;;;;;;;5054112;28;20045;-75
2022/07/30 07:30:39;;;;;;;5.72;5.22;;;;;;;;;;5053771;28;20578;-75
2022/07/30 07:33:05;;;;;;;5.93;5.43;;;;;;;;;;5054024;28;20385;-71
2022/07/30 07:35:32;;;;;;;5.80;5.30;;;;;;;;;;5053981;28;20080;-75
2022/07/30 07:38:14;;;;;;;5.82;5.22;;;;;;;;;;5052822;28;20458;-75
2022/07/30 07:40:41;;;;;;;5.95;5.45;;;;;;;;;;5053617;28;20132;-74
2022/07/30 07:43:07;;;;;;;5.72;5.05;;;;;;;;;;5053756;28;20086;-70
2022/07/30 07:45:33;;;;;;;6.00;5.32;;;;;;;;;;5053220;28;20136;-69
2022/07/30 07:48:00;;;;;;;5.65;5.07;;;;;;;;;;5053318;28;20056;-69
2022/07/30 07:50:26;;;;;;;5.22;4.75;;;;;;;;;;5048603;28;20128;-67
2022/07/30 07:52:53;;;;;;;5.53;4.80;;;;;;;;;;5033275;28;20073;-67
2022/07/30 07:55:21;;;;;;;5.78;5.28;;;;;;;;;;5050260;28;20128;-69
2022/07/30 07:57:49;;;;;;;4.93;4.43;;;;;;;;;;5052792;28;20041;-68
2022/07/30 08:00:19;;;;;;;5.50;5.05;;;;;;;;;;5053035;28;20080;-71
2022/07/30 08:02:46;;;;;;;4.85;4.30;;;;;;;;;;5053088;28;20099;-75
2022/07/30 08:05:13;;;;;;;7.13;4.95;;;;;;;;;;5053431;28;20135;-74
2022/07/30 08:07:39;;;;;;;4.80;4.40;;;;;;;;;;5032691;28;20103;-74
2022/07/30 08:10:06;;;;;;;4.25;3.90;;;;;;;;;;5036778;28;20072;-73
2022/07/30 08:12:33;;;;;;;5.10;4.10;;;;;;;;;;5053310;28;20464;-71
2022/07/30 08:15:00;;;;;;;3.28;3.08;;;;;;;;;;5052673;28;20131;-73
2022/07/30 08:17:27;;;;;;;3.50;3.20;;;;;;;;;;5039671;28;20103;-73
2022/07/30 08:19:56;;;;;;;4.03;2.25;;;;;;;;;;5032802;28;20088;-72
2022/07/30 08:22:23;;;;;;;2.05;1.95;;;;;;;;;;5032644;28;20072;-73
2022/07/30 08:24:49;;;;;;;1.85;1.58;;;;;;;;;;5032767;28;20081;-71
2022/07/30 08:27:16;;;;;;;2.92;1.92;;;;;;;;;;5032519;28;20169;-72
2022/07/30 08:29:42;;;;;;;2.45;2.25;;;;;;;;;;5036892;28;20462;-69
2022/07/30 08:32:09;;;;;;;2.05;1.95;;;;;;;;;;5051945;28;20084;-69
2022/07/30 08:34:35;;;;;;;3.25;2.10;;;;;;;;;;5034023;28;20430;-70
2022/07/30 08:37:03;;;;;;;2.33;2.13;;;;;;;;;;5043650;28;20055;-69
2022/07/30 08:39:29;;;;;;;2.70;2.50;;;;;;;;;;5051682;28;20049;-71
2022/07/30 08:41:57;;;;;;;2.30;2.20;;;;;;;;;;5052023;28;20244;-73
2022/07/30 08:44:25;;;;;;;1.80;1.70;;;;;;;;;;5051637;28;20464;-69
2022/07/30 08:46:55;;;;;;;2.10;1.90;;;;;;;;;;5051424;28;20052;-71
2022/07/30 08:49:21;;;;;;;1.73;1.55;;;;;;;;;;5034305;28;20407;-71
2022/07/30 08:51:51;;;;;;;3.25;1.83;;;;;;;;;;5027770;28;20046;-70
2022/07/30 08:54:18;;;;;;;1.75;1.65;;;;;;;;;;5030750;28;20472;-72
2022/07/30 08:56:44;;;;;;;1.95;1.85;;;;;;;;;;5030094;28;20073;-73
2022/07/30 08:59:11;;;;;;;1.48;1.38;;;;;;;;;;5031450;28;20128;-72
2022/07/30 09:01:38;;;;;;;1.67;1.58;;;;;;;;;;5043604;28;20083;-79
2022/07/30 09:04:04;;;;;;;1.73;1.30;;;;;;;;;;5026089;28;20104;-70
2022/07/30 09:06:36;;;;;;;3.10;1.83;;;;;;;;;;5031588;28;20505;-72
2022/07/30 09:09:02;;;;;;;1.40;1.30;;;;;;;;;;5049213;28;20073;-71
2022/07/30 09:11:29;;;;;;;1.20;1.10;;;;;;;;;;5037033;28;20090;-74
2022/07/30 09:14:06;;;;;;;1.47;1.37;;;;;;;;;;5031256;28;20087;-74
2022/07/30 09:16:34;;;;;;;1.65;1.52;;;;;;;;;;5036560;28;20044;-77
2022/07/30 09:19:10;;;;;;;2.17;1.67;;;;;;;;;;5038183;28;20106;-71
2022/07/30 09:21:36;;;;;;;1.48;1.38;;;;;;;;;;5051060;28;20049;-70
2022/07/30 09:24:04;;;;;;;2.37;1.70;;;;;;;;;;5051669;28;20073;-71
2022/07/30 09:26:31;;;;;;;1.38;1.30;;;;;;;;;;5051548;28;20321;-74
2022/07/30 09:29:17;;;;;;;2.25;1.50;;;;;;;;;;5051496;28;20095;-72
2022/07/30 09:31:53;;;;;;;1.85;1.25;;;;;;;;;;5051883;28;20080;-79
2022/07/30 09:34:46;;;;;;;2.92;1.70;;;;;;;;;;5050342;28;20468;-79
2022/07/30 09:37:12;;;;;;;1.48;1.13;;;;;;;;;;5048402;28;20129;-69
2022/07/30 09:39:40;;;;;;;1.50;1.30;;;;;;;;;;5051333;28;20488;-71
2022/07/30 09:42:37;;;;;;;1.67;1.00;;;;;;;;;;5050760;28;20080;-70
2022/07/30 09:45:10;;;;;;;2.63;1.30;;;;;;;;;;5050277;28;20132;-71
2022/07/30 09:47:37;;;;;;;0.70;0.70;;;;;;;;;;5048961;28;20556;-70
2022/07/30 09:50:08;;;;;;;3.15;1.00;;;;;;;;;;5050255;28;20124;-69
2022/07/30 09:52:36;;;;;;;1.40;1.15;;;;;;;;;;5051475;28;20107;-68
2022/07/30 09:55:27;;;;;;;2.60;1.38;;;;;;;;;;5051418;28;20045;-81
2022/07/30 09:57:56;;;;;;;1.45;1.10;;;;;;;;;;5051307;28;20102;-77
2022/07/30 10:00:25;;;;;;;1.77;1.00;;;;;;;;;;5051195;28;20523;-77
2022/07/30 10:02:52;;;;;;;1.00;1.00;;;;;;;;;;5051437;28;20072;-78
2022/07/30 10:05:19;;;;;;;1.45;1.42;;;;;;;;;;5051640;28;20194;-79
2022/07/30 10:07:50;;;;;;;1.80;1.60;;;;;;;;;;5035714;28;20092;-76
2022/07/30 10:10:18;;;;;;;1.73;1.20;;;;;;;;;;5044786;28;20046;-75
2022/07/30 10:12:45;;;;;;;1.45;1.20;;;;;;;;;;5037429;28;20045;-76
2022/07/30 10:15:14;;;;;;;1.15;1.10;;;;;;;;;;5054139;28;20040;-71
2022/07/30 10:17:41;;;;;;;1.65;1.55;;;;;;;;;;5042221;28;20057;-75
2022/07/30 10:20:07;;;;;;;1.33;1.23;;;;;;;;;;5052368;28;20076;-77
2022/07/30 10:22:34;;;;;;;1.70;1.20;;;;;;;;;;5053777;28;20056;-76
2022/07/30 10:25:02;;;;;;;1.35;1.25;;;;;;;;;;5053705;28;20132;-76
2022/07/30 10:27:30;;;;;;;1.35;1.23;;;;;;;;;;5053951;28;20103;-74
2022/07/30 10:29:57;;;;;;;1.20;1.20;;;;;;;;;;5053793;28;20036;-76
2022/07/30 10:32:28;;;;;;;1.30;1.20;;;;;;;;;;5052686;28;20060;-76
2022/07/30 10:34:57;;;;;;;2.05;1.00;;;;;;;;;;5054800;28;20497;-75
2022/07/30 10:37:24;;;;;;;0.98;0.98;;;;;;;;;;5054689;28;20405;-75
2022/07/30 10:39:53;;;;;;;1.20;1.05;;;;;;;;;;5055343;28;20381;-74
2022/07/30 10:42:38;;;;;;;1.00;0.90;;;;;;;;;;5054727;28;20468;-75
2022/07/30 10:45:21;;;;;;;1.40;0.90;;;;;;;;;;5054728;28;20049;-77
2022/07/30 10:47:49;;;;;;;1.90;1.10;;;;;;;;;;5054533;28;20286;-75
2022/07/30 10:50:17;;;;;;;1.45;0.85;;;;;;;;;;5054455;28;20409;-77
2022/07/30 10:52:51;;;;;;;0.88;0.80;;;;;;;;;;5055165;28;20077;-75
2022/07/30 10:55:24;;;;;;;0.75;0.75;;;;;;;;;;5053281;28;20049;-74
2022/07/30 10:58:04;;;;;;;2.55;0.93;;;;;;;;;;5054413;28;20123;-73
2022/07/30 11:00:50;;;;;;;1.33;0.82;;;;;;;;;;5054348;28;20140;-72
2022/07/30 11:03:18;;;;;;;2.60;0.80;;;;;;;;;;5054542;28;20056;-75
2022/07/30 11:05:48;;;;;;;1.67;0.90;;;;;;;;;;5053118;28;20527;-73
2022/07/30 11:08:36;;;;;;;0.82;0.60;;;;;;;;;;5054310;28;20045;-73
2022/07/30 11:11:20;;;;;;;0.63;0.60;;;;;;;;;;5054455;28;20400;-73
2022/07/30 11:14:06;;;;;;;0.73;0.65;;;;;;;;;;5054437;28;20065;-75
2022/07/30 11:16:33;;;;;;;0.65;0.65;;;;;;;;;;5054367;28;20045;-75
2022/07/30 11:19:00;;;;;;;;;;;;;;;;;;5054802;28;20128;-77
2022/07/30 11:21:49;;;;;;;;;;;;;;;;;;5053377;28;19927;-74
2022/07/30 11:24:34;;;;;;;0.70;0.70;;;;;;;;;;5054279;28;19931;-74
2022/07/30 11:27:01;;;;;;;1.00;0.80;;;;;;;;;;5053918;28;20133;-74
2022/07/30 11:29:32;;;;;;;0.80;0.80;;;;;;;;;;5054083;28;20048;-74
2022/07/30 11:32:17;;;;;;;0.93;0.90;;;;;;;;;;5053778;28;20041;-78
2022/07/30 11:34:44;;;;;;;1.10;1.00;;;;;;;;;;5052726;28;20048;-76
2022/07/30 11:37:16;;;;;;;1.30;1.20;;;;;;;;;;5053817;28;20091;-69
2022/07/30 11:39:47;;;;;;;;;;;;;;;;;;5042616;28;20049;-67
2022/07/30 11:42:30;;;;;;;1.52;1.23;;;;;;;;;;5031870;28;19971;-69
2022/07/30 11:45:12;;;;;;;1.15;1.10;;;;;;;;;;5032441;28;20073;-71
2022/07/30 11:47:38;;;;;;;0.80;0.80;;;;;;;;;;5032871;28;20089;-69
2022/07/30 11:50:05;;;;;;;0.82;0.82;;;;;;;;;;5038975;28;20128;-70
2022/07/30 11:52:31;;;;;;;0.82;0.82;;;;;;;;;;5053698;28;20466;-72
2022/07/30 11:54:58;;;;;;;2.47;1.00;;;;;;;;;;5053569;28;20080;-77
2022/07/30 11:57:40;;;;;;;0.50;0.50;;;;;;;;;;5052127;28;20048;-77
2022/07/30 12:00:07;;;;;;;0.60;0.60;;;;;;;;;;5053185;28;20460;-76
2022/07/30 12:02:33;;;;;;;0.57;0.50;;;;;;;;;;5053144;28;20111;-77
2022/07/30 12:05:00;;;;;;;0.45;0.40;;;;;;;;;;5053214;28;20083;-76
2022/07/30 12:07:26;;;;;;;0.35;0.35;;;;;;;;;;5053135;28;20135;-74
2022/07/30 12:09:53;;;;;;;1.42;0.60;;;;;;;;;;5053054;28;20077;-78
2022/07/30 12:12:26;;;;;;;0.90;0.52;;;;;;;;;;5038489;28;20474;-76
2022/07/30 12:14:52;;;;;;;0.40;0.40;;;;;;;;;;5053277;28;20045;-76
2022/07/30 12:17:18;;;;;;;0.80;0.40;;;;;;;;;;5052555;28;20049;-75
2022/07/30 12:19:48;;;;;;;0.43;0.40;;;;;;;;;;5053000;28;20124;-74
2022/07/30 12:22:14;;;;;;;0.25;0.25;;;;;;;;;;5053109;28;20056;-77
2022/07/30 12:24:41;;;;;;;0.25;0.22;;;;;;;;;;5053145;28;20041;-76
2022/07/30 12:27:07;;;;;;;0.22;0.20;;;;;;;;;;5052885;28;20445;-76
2022/07/30 12:29:34;;;;;;;0.25;0.00;;;;;;;;;;5052588;28;20523;-73
2022/07/30 12:32:01;;;;;;;;;;;;;;;;;;5052355;28;20053;-75
2022/07/30 12:34:27;;;;;;;0.13;0.10;;;;;;;;;;5052927;28;19946;-74
2022/07/30 12:36:54;;;;;;;1.45;0.20;;;;;;;;;;5052585;28;20523;-75
2022/07/30 12:39:25;;;;;;;0.50;0.20;;;;;;;;;;5052819;28;20091;-73
2022/07/30 12:41:54;;;;;;;0.20;0.17;;;;;;;;;;5051541;28;20091;-75
2022/07/30 12:44:33;;;;;;;0.20;0.20;;;;;;;;;;5052998;28;20103;-75
2022/07/30 12:46:59;;;;;;;0.65;0.20;;;;;;;;;;5052615;28;20081;-74
2022/07/30 12:49:28;;;;;;;0.50;0.20;;;;;;;;;;5052752;28;20045;-75
2022/07/30 12:52:04;;;;;;;0.90;0.30;;;;;;;;;;5052444;28;20045;-75
2022/07/30 12:54:33;;;;;;;0.57;0.20;;;;;;;;;;5052056;28;20041;-75
2022/07/30 12:57:01;;;;;;;1.30;0.20;;;;;;;;;;5052517;28;20167;-75
2022/07/30 12:59:29;;;;;;;0.70;0.20;;;;;;;;;;5052476;28;20106;-76
2022/07/30 13:01:58;;;;;;;1.02;0.28;;;;;;;;;;5052291;28;20084;-74
2022/07/30 13:04:26;;;;;;;0.38;0.20;;;;;;;;;;5052015;28;20053;-75
2022/07/30 13:07:02;;;;;;;0.93;0.10;;;;;;;;;;5052139;28;20080;-75
2022/07/30 13:09:29;;;;;;;0.28;0.10;;;;;;;;;;5052024;28;20497;-75
2022/07/30 13:11:55;;;;;;;1.40;0.20;;;;;;;;;;5051876;28;20099;-76
2022/07/30 13:14:22;;;;;;;1.17;0.30;;;;;;;;;;5052037;28;20083;-75
2022/07/30 13:16:52;;;;;;;1.85;0.50;;;;;;;;;;5052497;28;20045;-74
2022/07/30 13:19:19;;;;;;;1.00;0.50;;;;;;;;;;5051934;28;20076;-76
2022/07/30 13:21:47;;;;;;;1.63;0.60;;;;;;;;;;5051764;28;20512;-76
2022/07/30 13:24:16;;;;;;;0.50;0.50;;;;;;;;;;5052109;28;20368;-75
2022/07/30 13:26:43;;;;;;;0.85;0.45;;;;;;;;;;5046477;28;20053;-75
2022/07/30 13:29:12;;;;;;;1.30;1.20;;;;;;;;;;5043613;28;20091;-75
2022/07/30 13:31:39;;;;;;;3.92;3.25;;;;;;;;;;5051527;28;20063;-78
2022/07/30 13:34:09;;;;;;;13.98;12.77;;;;;;;;;;5051906;28;20045;-76
2022/07/30 13:36:35;;;;;;;0.65;0.63;;;;;;;;;;5051865;28;20539;-77
2022/07/30 13:39:02;;;;;;;0.60;0.60;;;;;;;;;;5051820;28;20122;-76
2022/07/30 13:41:28;;;;;;;1.80;1.10;;;;;;;;;;5051530;28;20563;-76
2022/07/30 13:43:55;;;;;;;1.75;1.58;;;;;;;;;;5051195;28;20076;-76
2022/07/30 13:46:21;;;;;;;1.52;1.35;;;;;;;;;;5050411;28;20134;-78
2022/07/30 13:48:48;;;;;;;10.73;8.32;;;;;;;;;;5051274;28;20084;-75
2022/07/30 13:51:15;;;;;;;4.25;3.78;;;;;;;;;;5050115;28;20053;-78
2022/07/30 13:53:42;;;;;;;5.20;4.70;;;;;;;;;;5051615;28;20045;-77
2022/07/30 13:56:08;;;;;;;7.07;5.95;;;;;;;;;;5051715;28;20099;-77
2022/07/30 13:58:38;;;;;;;2.30;1.92;;;;;;;;;;5051481;28;20056;-77
2022/07/30 14:01:05;;;;;;;;;;;;;;;;;;5052009;28;20049;-78
2022/07/30 14:03:32;;;;;;;1.40;1.33;;;;;;;;;;5051305;28;19924;-77
2022/07/30 14:05:59;;;;;;;1.83;0.80;;;;;;;;;;5051699;28;20053;-77
2022/07/30 14:08:36;;;;;;;2.80;2.05;;;;;;;;;;5050221;28;20178;-75
2022/07/30 14:11:02;;;;;;;7.05;4.47;;;;;;;;;;5051100;28;20110;-77
2022/07/30 14:13:29;;;;;;;3.38;3.08;;;;;;;;;;5051334;28;20048;-76
2022/07/30 14:15:55;;;;;;;2.22;2.03;;;;;;;;;;5051424;28;20077;-75
2022/07/30 14:18:22;;;;;;;2.40;2.20;;;;;;;;;;5051521;28;20048;-75
2022/07/30 14:20:51;;;;;;;2.10;1.30;;;;;;;;;;5050253;28;20488;-76
2022/07/30 14:23:18;;;;;;;1.40;1.30;;;;;;;;;;5051101;28;20088;-75
2022/07/30 14:25:44;;;;;;;2.42;1.92;;;;;;;;;;5051185;28;20100;-76
2022/07/30 14:28:11;;;;;;;;;;;;;;;;;;5051786;28;20187;-74
2022/07/30 14:30:37;;;;;;;3.03;2.60;;;;;;;;;;5051347;28;19964;-75
2022/07/30 14:33:04;;;;;;;1.88;1.45;;;;;;;;;;5051363;28;20041;-76
2022/07/30 14:35:30;;;;;;;1.23;0.90;;;;;;;;;;5051205;28;20084;-76
2022/07/30 14:37:57;;;;;;;1.45;1.35;;;;;;;;;;5051022;28;20504;-75
2022/07/30 14:40:23;;;;;;;1.45;1.35;;;;;;;;;;5051056;28;20074;-76
2022/07/30 14:42:50;;;;;;;4.03;1.15;;;;;;;;;;5051331;28;20111;-77
2022/07/30 14:45:16;;;;;;;3.45;1.30;;;;;;;;;;5051233;28;20084;-76
2022/07/30 14:47:42;;;;;;;2.40;1.60;;;;;;;;;;5050796;28;20057;-76
2022/07/30 14:50:09;;;;;;;1.25;1.17;;;;;;;;;;5051038;28;20145;-77
2022/07/30 14:52:37;;;;;;;1.35;1.17;;;;;;;;;;5050864;28;20524;-76
2022/07/30 14:55:05;;;;;;;4.45;1.65;;;;;;;;;;5051104;28;20492;-76